Time;durP1;ratioP1;P1;durP2;ratioP2;P2;SDS_P1;SDS_P2;PMS_P1;PMS_P2;Temp;Humidity;BMP_temperature;BMP_pressure;BME280_temperature;BME280_humidity;BME280_pressure;Samples;Min_cycle;Max_cycle;Signal;HPM_P1;HPM_P2
2022/06/25 00:01:56;;;;;;;23.17;20.98;;;18.60;99.90;;;;;;5049106;28;20037;-79
2022/06/25 00:07:06;;;;;;;;;;;18.60;99.90;;;;;;5049315;28;20049;-79
2022/06/25 00:09:31;;;;;;;22.60;20.30;;;18.60;99.90;;;;;;5048379;28;19924;-79
2022/06/25 00:14:41;;;;;;;23.50;21.20;;;18.50;99.90;;;;;;5048519;28;20124;-79
2022/06/25 00:17:07;;;;;;;23.58;21.27;;;18.50;99.90;;;;;;5047254;28;20128;-79
2022/06/25 00:19:33;;;;;;;24.55;22.23;;;18.40;99.90;;;;;;5049562;28;20049;-79
2022/06/25 00:21:58;;;;;;;24.05;21.67;;;18.40;99.90;;;;;;5049042;28;20029;-78
2022/06/25 00:24:24;;;;;;;26.67;24.10;;;18.40;99.90;;;;;;5048685;28;20029;-78
2022/06/25 00:26:49;;;;;;;28.20;24.38;;;18.40;99.90;;;;;;5050479;28;20047;-77
2022/06/25 00:29:15;;;;;;;27.30;24.60;;;18.30;99.90;;;;;;5048657;28;20105;-79
2022/06/25 00:31:41;;;;;;;26.65;24.05;;;18.30;99.90;;;;;;5050816;28;20036;-78
2022/06/25 00:34:08;;;;;;;27.15;24.55;;;18.30;99.90;;;;;;5049654;28;20169;-78
2022/06/25 00:36:33;;;;;;;28.83;25.95;;;18.20;99.90;;;;;;5048494;28;20037;-78
2022/06/25 00:38:59;;;;;;;25.38;22.77;;;18.30;99.90;;;;;;5047973;28;20029;-79
2022/06/25 00:41:25;;;;;;;25.77;23.17;;;18.20;99.90;;;;;;5047708;28;20037;-78
2022/06/25 00:43:51;;;;;;;27.27;24.50;;;18.30;99.90;;;;;;5049933;28;20037;-78
2022/06/25 00:46:17;;;;;;;29.23;26.30;;;18.30;99.90;;;;;;5048972;28;20052;-78
2022/06/25 00:48:43;;;;;;;27.27;24.42;;;18.30;99.90;;;;;;5048540;28;20073;-79
2022/06/25 00:51:13;;;;;;;28.65;25.75;;;18.30;99.90;;;;;;5048235;28;20572;-78
2022/06/25 00:53:45;;;;;;;27.75;24.80;;;18.20;99.90;;;;;;5046185;28;20041;-78
2022/06/25 00:56:13;;;;;;;25.65;22.95;;;18.20;99.90;;;;;;5044565;28;20515;-79
2022/06/25 00:58:41;;;;;;;30.10;23.13;;;18.10;99.90;;;;;;5049841;28;20048;-78
2022/06/25 01:01:08;;;;;;;26.48;23.95;;;18.20;99.90;;;;;;5048693;28;20053;-79
2022/06/25 01:03:35;;;;;;;27.00;24.10;;;18.10;99.90;;;;;;5047107;28;20044;-80
2022/06/25 01:06:01;;;;;;;25.08;22.48;;;18.10;99.90;;;;;;5043612;28;20041;-80
2022/06/25 01:08:27;;;;;;;28.80;24.05;;;18.10;99.90;;;;;;5051454;28;20049;-80
2022/06/25 01:10:53;;;;;;;26.45;23.73;;;18.10;99.90;;;;;;5052219;28;20115;-80
2022/06/25 01:13:21;;;;;;;27.25;24.35;;;18.00;99.90;;;;;;5054481;28;20067;-79
2022/06/25 01:15:48;;;;;;;26.95;24.35;;;18.00;99.90;;;;;;5052095;28;20041;-80
2022/06/25 01:18:14;;;;;;;24.27;21.88;;;18.00;99.90;;;;;;5053279;28;20120;-80
2022/06/25 01:20:42;;;;;;;22.77;20.38;;;18.00;99.90;;;;;;5050590;28;20172;-79
2022/06/25 01:23:08;;;;;;;22.50;20.33;;;18.00;99.90;;;;;;5048957;28;20040;-80
2022/06/25 01:25:35;;;;;;;22.95;20.67;;;18.00;99.90;;;;;;5053036;28;20079;-80
2022/06/25 01:28:02;;;;;;;25.70;22.65;;;18.00;99.90;;;;;;5046430;28;20045;-81
2022/06/25 01:30:28;;;;;;;25.08;22.48;;;17.90;99.90;;;;;;5051415;28;20073;-81
2022/06/25 01:32:54;;;;;;;24.10;21.55;;;17.90;99.90;;;;;;5051806;28;20470;-80
2022/06/25 01:35:19;;;;;;;23.63;21.05;;;17.90;99.90;;;;;;5051041;28;20045;-80
2022/06/25 01:37:45;;;;;;;22.98;20.77;;;17.90;99.90;;;;;;5052473;28;20040;-80
2022/06/25 01:40:10;;;;;;;24.90;22.30;;;17.90;99.90;;;;;;5052404;28;20044;-81
2022/06/25 01:45:21;;;;;;;22.58;20.35;;;17.80;99.90;;;;;;5051669;28;20123;-79
2022/06/25 01:47:47;;;;;;;23.95;21.45;;;17.70;99.90;;;;;;5052825;28;20123;-80
2022/06/25 01:50:13;;;;;;;22.83;20.45;;;17.70;99.90;;;;;;5052463;28;20044;-79
2022/06/25 01:52:40;;;;;;;22.77;20.58;;;17.70;99.90;;;;;;5048164;28;20036;-79
2022/06/25 01:55:07;;;;;;;22.58;20.45;;;17.70;99.90;;;;;;5051144;28;20044;-80
2022/06/25 01:57:32;;;;;;;23.98;20.77;;;17.70;99.90;;;;;;5053120;28;20044;-80
2022/06/25 01:59:58;;;;;;;22.95;20.65;;;17.70;99.90;;;;;;5052041;28;20037;-80
2022/06/25 02:02:24;;;;;;;22.67;20.48;;;17.60;99.90;;;;;;5051563;28;20541;-80
2022/06/25 02:04:49;;;;;;;22.63;19.92;;;17.60;99.90;;;;;;5051978;28;20036;-80
2022/06/25 02:07:15;;;;;;;22.35;19.95;;;17.60;99.90;;;;;;5052627;28;20041;-78
2022/06/25 02:09:40;;;;;;;22.23;19.88;;;17.60;99.90;;;;;;5053217;28;20120;-79
2022/06/25 02:12:07;;;;;;;21.77;19.50;;;17.60;99.90;;;;;;5052751;28;20041;-79
2022/06/25 02:14:33;;;;;;;21.80;19.50;;;17.50;99.90;;;;;;5052700;28;20040;-80
2022/06/25 02:16:58;;;;;;;21.02;18.92;;;17.50;99.90;;;;;;5052372;28;20509;-80
2022/06/25 02:19:24;;;;;;;21.17;19.13;;;17.50;99.90;;;;;;5050073;28;20079;-80
2022/06/25 02:21:49;;;;;;;22.42;20.02;;;17.50;99.90;;;;;;5053393;28;20086;-80
2022/06/25 02:24:15;;;;;;;22.70;19.30;;;17.50;99.90;;;;;;5049471;28;20036;-80
2022/06/25 02:26:41;;;;;;;20.45;18.33;;;17.40;99.90;;;;;;5052370;28;20053;-79
2022/06/25 02:29:06;;;;;;;19.95;17.85;;;17.40;99.90;;;;;;5052387;28;20075;-79
2022/06/25 02:31:32;;;;;;;19.65;17.65;;;17.40;99.90;;;;;;5050907;28;20402;-80
2022/06/25 02:33:58;;;;;;;18.90;16.92;;;17.40;99.90;;;;;;5051122;28;20037;-79
2022/06/25 02:36:23;;;;;;;20.13;18.02;;;17.30;99.90;;;;;;5051368;28;20072;-79
2022/06/25 02:38:49;;;;;;;23.30;17.58;;;17.30;99.90;;;;;;5052314;28;20534;-79
2022/06/25 02:41:14;;;;;;;20.90;17.67;;;17.30;99.90;;;;;;5049626;28;20056;-79
2022/06/25 02:43:40;;;;;;;23.67;17.08;;;17.30;99.90;;;;;;5052549;28;20037;-79
2022/06/25 02:46:05;;;;;;;19.10;17.25;;;17.30;99.90;;;;;;5050609;28;20037;-79
2022/06/25 02:48:31;;;;;;;19.20;16.30;;;17.20;99.90;;;;;;5052774;28;20051;-79
2022/06/25 02:50:57;;;;;;;19.77;17.67;;;17.30;99.90;;;;;;5050267;28;20041;-79
2022/06/25 02:53:22;;;;;;;20.23;18.27;;;17.20;99.90;;;;;;5051226;28;20044;-80
2022/06/25 03:01:16;;;;;;;19.27;17.25;;;17.20;99.90;;;;;;5048192;28;20297;-79
2022/06/25 03:03:41;;;;;;;18.83;16.77;;;17.10;99.90;;;;;;5051259;28;20033;-79
2022/06/25 03:06:07;;;;;;;19.30;16.88;;;17.10;99.90;;;;;;5050033;28;20072;-79
2022/06/25 03:08:33;;;;;;;17.60;15.82;;;17.10;99.90;;;;;;5052590;28;20502;-78
2022/06/25 03:10:58;;;;;;;19.00;16.80;;;17.10;99.90;;;;;;5049355;28;20072;-80
2022/06/25 03:13:24;;;;;;;17.67;15.88;;;17.10;99.90;;;;;;5050615;28;20470;-79
2022/06/25 03:15:50;;;;;;;17.52;15.73;;;17.10;99.90;;;;;;5052096;28;20067;-80
2022/06/25 03:18:15;;;;;;;17.33;15.65;;;17.10;99.90;;;;;;5049627;28;20486;-80
2022/06/25 03:20:41;;;;;;;18.17;15.63;;;17.10;99.90;;;;;;5050794;28;20029;-80
2022/06/25 03:23:07;;;;;;;18.15;15.82;;;17.10;99.90;;;;;;5050700;28;20036;-80
2022/06/25 03:25:32;;;;;;;17.20;15.50;;;17.10;99.90;;;;;;5050792;28;20498;-79
2022/06/25 03:27:58;;;;;;;17.90;16.10;;;17.10;99.90;;;;;;5050745;28;20044;-78
2022/06/25 03:30:24;;;;;;;16.88;15.20;;;17.00;99.90;;;;;;5048279;28;20522;-80
2022/06/25 03:32:49;;;;;;;16.42;14.82;;;17.00;99.90;;;;;;5049640;28;20049;-79
2022/06/25 03:35:15;;;;;;;16.85;14.98;;;17.00;99.90;;;;;;5046915;28;20052;-79
2022/06/25 03:37:41;;;;;;;14.93;13.43;;;17.00;99.90;;;;;;5050260;28;20502;-79
2022/06/25 03:40:07;;;;;;;15.65;14.05;;;17.00;99.90;;;;;;5049653;28;20060;-78
2022/06/25 03:42:32;;;;;;;15.45;13.93;;;17.00;99.90;;;;;;5045960;28;20064;-79
2022/06/25 03:44:58;;;;;;;14.88;13.38;;;17.00;99.90;;;;;;5047619;28;20544;-79
2022/06/25 03:47:24;;;;;;;15.50;13.32;;;17.00;99.90;;;;;;5046283;28;20067;-79
2022/06/25 03:49:49;;;;;;;15.30;13.90;;;17.00;99.90;;;;;;5048779;28;20041;-79
2022/06/25 03:52:15;;;;;;;17.55;13.40;;;17.10;99.90;;;;;;5049021;28;20044;-79
2022/06/25 03:54:41;;;;;;;14.40;12.90;;;17.00;99.90;;;;;;5049363;28;20039;-79
2022/06/25 03:57:06;;;;;;;14.75;13.25;;;17.00;99.90;;;;;;5048972;28;20477;-79
2022/06/25 03:59:32;;;;;;;14.90;13.05;;;17.00;99.90;;;;;;5049281;28;20032;-79
2022/06/25 04:01:57;;;;;;;14.27;12.85;;;17.10;99.90;;;;;;5051580;28;20028;-79
2022/06/25 04:04:23;;;;;;;15.18;13.52;;;17.10;99.90;;;;;;5046033;28;20106;-79
2022/06/25 04:06:49;;;;;;;14.18;12.82;;;17.10;99.90;;;;;;5049560;28;20048;-79
2022/06/25 04:09:14;;;;;;;14.95;13.35;;;17.10;99.90;;;;;;5048432;28;20041;-79
2022/06/25 04:11:40;;;;;;;14.32;12.93;;;17.20;99.90;;;;;;5049391;28;20044;-79
2022/06/25 04:14:06;;;;;;;14.52;13.13;;;17.20;99.90;;;;;;5047787;28;20041;-79
2022/06/25 04:16:33;;;;;;;14.07;12.68;;;17.20;99.90;;;;;;5048787;28;20080;-79
2022/06/25 04:18:59;;;;;;;14.10;12.60;;;17.20;99.90;;;;;;5050179;28;20083;-79
2022/06/25 04:21:24;;;;;;;13.50;12.25;;;17.20;99.90;;;;;;5046367;28;20032;-79
2022/06/25 04:23:51;;;;;;;13.27;11.88;;;17.20;99.90;;;;;;5047924;28;20124;-79
2022/06/25 04:26:16;;;;;;;13.70;12.40;;;17.30;99.90;;;;;;5045786;28;20033;-79
2022/06/25 04:31:26;;;;;;;13.18;11.88;;;17.40;99.90;;;;;;5044130;28;20065;-78
2022/06/25 04:33:52;;;;;;;13.00;11.48;;;17.30;99.90;;;;;;5050624;28;20056;-78
2022/06/25 04:36:18;;;;;;;12.18;10.88;;;17.40;99.90;;;;;;5051585;28;20086;-79
2022/06/25 04:38:43;;;;;;;13.05;11.68;;;17.40;99.90;;;;;;5050140;28;20137;-78
2022/06/25 04:41:09;;;;;;;12.68;11.40;;;17.40;99.90;;;;;;5051046;28;20037;-78
2022/06/25 04:43:35;;;;;;;12.68;11.48;;;17.40;99.90;;;;;;5054069;28;20037;-78
2022/06/25 04:46:01;;;;;;;12.32;11.10;;;17.50;99.90;;;;;;5053320;28;20041;-78
2022/06/25 04:48:26;;;;;;;12.32;11.13;;;17.50;99.90;;;;;;5055512;28;20049;-78
2022/06/25 04:50:52;;;;;;;11.15;10.15;;;17.60;99.90;;;;;;5053924;28;20044;-79
2022/06/25 04:53:18;;;;;;;12.05;10.77;;;17.60;99.90;;;;;;5054098;28;20538;-79
2022/06/25 04:55:43;;;;;;;11.35;10.25;;;17.60;99.90;;;;;;5054751;28;20047;-79
2022/06/25 04:58:10;;;;;;;11.68;10.48;;;17.60;99.90;;;;;;5054743;28;20049;-78
2022/06/25 05:00:35;;;;;;;11.43;10.32;;;17.70;99.90;;;;;;5053885;28;20083;-79
2022/06/25 05:03:01;;;;;;;11.52;10.35;;;17.70;99.90;;;;;;5055165;28;20036;-79
2022/06/25 05:05:26;;;;;;;11.20;10.02;;;17.80;99.90;;;;;;5053283;28;20044;-78
2022/06/25 05:07:52;;;;;;;11.93;10.43;;;17.90;99.90;;;;;;5053670;28;20045;-79
2022/06/25 05:10:17;;;;;;;11.27;10.05;;;18.00;99.90;;;;;;5053629;28;20159;-79
2022/06/25 05:15:27;;;;;;;11.13;10.02;;;18.10;99.90;;;;;;5052975;28;20048;-79
2022/06/25 05:17:53;;;;;;;10.77;9.70;;;18.20;99.90;;;;;;5052041;28;20120;-78
2022/06/25 05:20:18;;;;;;;23.83;9.60;;;18.20;99.90;;;;;;5053200;28;20041;-78
2022/06/25 05:22:44;;;;;;;11.18;9.98;;;18.30;99.90;;;;;;5052504;28;20045;-78
2022/06/25 05:25:10;;;;;;;10.68;9.57;;;18.30;99.90;;;;;;5052132;28;20052;-78
2022/06/25 05:27:35;;;;;;;10.75;9.68;;;18.40;99.90;;;;;;5051410;28;20052;-78
2022/06/25 05:30:01;;;;;;;11.18;9.52;;;18.40;99.90;;;;;;5046921;28;20041;-79
2022/06/25 05:32:26;;;;;;;10.07;8.93;;;18.50;99.90;;;;;;5046313;28;20037;-78
2022/06/25 05:34:52;;;;;;;10.48;9.38;;;18.50;99.90;;;;;;5049400;28;20094;-78
2022/06/25 05:37:18;;;;;;;10.65;9.10;;;18.60;99.90;;;;;;5053531;28;20103;-78
2022/06/25 05:39:43;;;;;;;9.82;8.85;;;18.70;99.90;;;;;;5051602;28;20037;-79
2022/06/25 05:42:09;;;;;;;10.60;9.10;;;18.70;99.90;;;;;;5053788;28;20048;-79
2022/06/25 05:44:34;;;;;;;9.88;8.85;;;18.80;99.90;;;;;;5052346;28;20045;-79
2022/06/25 05:47:00;;;;;;;9.07;8.23;;;18.90;99.90;;;;;;5054022;28;20045;-79
2022/06/25 05:49:25;;;;;;;12.18;8.65;;;18.90;99.90;;;;;;5052850;28;20049;-79
2022/06/25 05:51:51;;;;;;;9.77;8.50;;;18.90;99.90;;;;;;5054793;28;20048;-79
2022/06/25 05:54:16;;;;;;;10.95;8.50;;;19.00;99.90;;;;;;5053429;28;20047;-79
2022/06/25 05:56:42;;;;;;;11.30;8.23;;;19.00;99.90;;;;;;5055785;28;20108;-79
2022/06/25 05:59:08;;;;;;;13.35;8.40;;;19.10;99.90;;;;;;5054332;28;20048;-79
2022/06/25 06:01:34;;;;;;;8.63;7.72;;;19.20;99.90;;;;;;5055540;28;20037;-79
2022/06/25 06:03:59;;;;;;;9.18;8.27;;;19.20;99.90;;;;;;5054327;28;20037;-79
2022/06/25 06:06:25;;;;;;;9.23;8.32;;;19.30;99.90;;;;;;5053806;28;20037;-79
2022/06/25 06:08:50;;;;;;;10.15;8.15;;;19.50;99.90;;;;;;5055366;28;20056;-78
2022/06/25 06:11:16;;;;;;;10.80;8.27;;;19.50;99.90;;;;;;5053994;28;20040;-79
2022/06/25 06:13:42;;;;;;;9.75;7.68;;;19.60;99.90;;;;;;5054323;28;20073;-79
2022/06/25 06:16:07;;;;;;;8.65;7.57;;;19.70;99.90;;;;;;5053746;28;20041;-79
2022/06/25 06:18:33;;;;;;;12.70;8.25;;;19.80;99.90;;;;;;5053992;28;20052;-79
2022/06/25 06:20:58;;;;;;;9.20;7.60;;;19.90;99.90;;;;;;5053931;28;20070;-79
2022/06/25 06:23:24;;;;;;;8.63;7.72;;;20.20;99.90;;;;;;5053470;28;20048;-79
2022/06/25 06:25:50;;;;;;;9.73;7.53;;;20.20;99.90;;;;;;5054964;28;20467;-78
2022/06/25 06:28:16;;;;;;;8.55;7.70;;;20.30;99.90;;;;;;5053575;28;20048;-79
2022/06/25 06:30:42;;;;;;;7.68;6.88;;;20.40;99.90;;;;;;5055131;28;20045;-79
2022/06/25 06:33:07;;;;;;;8.88;7.97;;;20.30;99.90;;;;;;5054575;28;20116;-78
2022/06/25 06:35:33;;;;;;;8.48;7.43;;;20.40;99.90;;;;;;5053992;28;20538;-79
2022/06/25 06:37:59;;;;;;;9.95;7.10;;;20.50;99.90;;;;;;5053414;28;20116;-79
2022/06/25 06:40:24;;;;;;;9.77;7.53;;;20.50;99.90;;;;;;5052900;28;20129;-78
2022/06/25 06:42:50;;;;;;;10.07;7.07;;;20.60;99.90;;;;;;5052963;28;20087;-78
2022/06/25 06:45:15;;;;;;;9.35;6.95;;;20.60;99.90;;;;;;5051301;28;20033;-79
2022/06/25 06:47:41;;;;;;;9.20;6.47;;;20.60;99.90;;;;;;5054497;28;20051;-79
2022/06/25 06:50:08;;;;;;;9.73;7.07;;;20.80;99.90;;;;;;5052351;28;20072;-79
2022/06/25 06:52:34;;;;;;;8.45;6.53;;;20.90;99.90;;;;;;5053625;28;20064;-79
2022/06/25 06:55:01;;;;;;;10.45;6.68;;;21.00;99.90;;;;;;5052866;28;20400;-79
2022/06/25 06:57:27;;;;;;;7.85;6.40;;;21.00;99.90;;;;;;5034192;28;20040;-79
2022/06/25 06:59:52;;;;;;;8.18;6.15;;;21.10;99.90;;;;;;5052723;28;20407;-80
2022/06/25 07:02:18;;;;;;;10.82;6.00;;;21.10;99.90;;;;;;5052716;28;20033;-79
2022/06/25 07:04:44;;;;;;;7.93;6.15;;;21.20;99.90;;;;;;5051230;28;20132;-79
2022/06/25 07:07:09;;;;;;;7.70;5.97;;;21.10;99.90;;;;;;5052377;28;20052;-79
2022/06/25 07:09:35;;;;;;;8.30;6.07;;;21.20;99.90;;;;;;5052314;28;20052;-79
2022/06/25 07:12:00;;;;;;;7.50;5.75;;;21.20;99.90;;;;;;5052191;28;20736;-78
2022/06/25 07:14:26;;;;;;;7.80;5.60;;;21.20;99.90;;;;;;5052691;28;20046;-79
2022/06/25 07:16:51;;;;;;;7.85;4.88;;;21.30;99.90;;;;;;5052575;28;20041;-79
2022/06/25 07:19:17;;;;;;;10.20;5.40;;;21.40;99.90;;;;;;5052557;28;20041;-79
2022/06/25 07:21:42;;;;;;;6.53;4.80;;;21.50;99.90;;;;;;5053722;28;20491;-79
2022/06/25 07:24:08;;;;;;;5.25;4.22;;;21.70;99.90;;;;;;5051602;28;20033;-79
2022/06/25 07:26:35;;;;;;;6.53;4.57;;;21.80;99.90;;;;;;5051806;28;20163;-78
2022/06/25 07:29:01;;;;;;;6.18;4.50;;;21.90;99.90;;;;;;5051713;28;20045;-79
2022/06/25 07:31:28;;;;;;;5.13;4.00;;;21.90;99.90;;;;;;5051385;28;20040;-79
2022/06/25 07:33:53;;;;;;;6.43;4.68;;;21.90;99.90;;;;;;5050394;28;20124;-79
2022/06/25 07:36:19;;;;;;;5.65;4.15;;;21.90;99.90;;;;;;5051281;28;20120;-79
2022/06/25 07:38:45;;;;;;;4.85;3.90;;;21.90;99.90;;;;;;5052182;28;20041;-79
2022/06/25 07:41:10;;;;;;;6.00;4.20;;;22.00;99.90;;;;;;5051208;28;20041;-78
2022/06/25 07:43:36;;;;;;;8.55;4.10;;;22.10;99.90;;;;;;5052326;28;20037;-79
2022/06/25 07:46:02;;;;;;;7.15;3.53;;;22.20;99.90;;;;;;5050746;28;20036;-79
2022/06/25 07:48:28;;;;;;;4.25;2.90;;;22.30;99.90;;;;;;5051354;28;20053;-78
2022/06/25 07:53:38;;;;;;;5.30;3.03;;;22.40;99.90;;;;;;5051112;28;20052;-78
2022/06/25 07:56:05;;;;;;;6.85;3.00;;;22.50;99.90;;;;;;5052760;28;20037;-78
2022/06/25 07:58:31;;;;;;;5.63;2.55;;;22.50;99.90;;;;;;5052476;28;20040;-79
2022/06/25 08:00:56;;;;;;;8.30;2.58;;;22.60;99.90;;;;;;5052787;28;20056;-80
2022/06/25 08:03:22;;;;;;;4.35;2.42;;;22.70;99.90;;;;;;5050992;28;20044;-78
2022/06/25 08:05:48;;;;;;;4.85;2.97;;;22.60;99.90;;;;;;5050642;28;20636;-78
2022/06/25 08:08:14;;;;;;;3.58;2.40;;;22.60;99.90;;;;;;5050940;28;20067;-79
2022/06/25 08:10:42;;;;;;;5.47;2.70;;;22.80;99.90;;;;;;5051144;28;20045;-79
2022/06/25 08:13:08;;;;;;;4.70;2.33;;;22.90;99.90;;;;;;5051979;28;20076;-78
2022/06/25 08:15:34;;;;;;;10.98;2.70;;;22.90;99.90;;;;;;5050503;28;20531;-78
2022/06/25 08:17:59;;;;;;;5.63;2.42;;;23.00;99.90;;;;;;5050586;28;20041;-79
2022/06/25 08:20:25;;;;;;;3.83;2.22;;;23.10;99.90;;;;;;5050657;28;20036;-77
2022/06/25 08:22:51;;;;;;;5.07;2.70;;;23.20;99.90;;;;;;5051710;28;20044;-77
2022/06/25 08:25:16;;;;;;;3.45;2.15;;;23.40;99.90;;;;;;5049341;28;20067;-77
2022/06/25 08:27:50;;;;;;;6.70;2.60;;;23.50;99.90;;;;;;5051121;28;20077;-77
2022/06/25 08:30:16;;;;;;;;;;;23.70;99.90;;;;;;5050599;28;20127;-77
2022/06/25 08:32:42;;;;;;;6.20;2.72;;;23.60;99.90;;;;;;5051651;28;19924;-78
2022/06/25 08:35:08;;;;;;;4.95;2.50;;;23.60;99.90;;;;;;5049437;28;20033;-77
2022/06/25 08:37:38;;;;;;;4.50;2.30;;;23.50;99.90;;;;;;5050203;28;20044;-78
2022/06/25 08:40:07;;;;;;;5.07;2.70;;;23.10;99.90;;;;;;5051300;28;20454;-78
2022/06/25 08:42:33;;;;;;;5.88;2.60;;;22.90;99.90;;;;;;5050080;28;20040;-78
2022/06/25 08:44:58;;;;;;;5.03;2.45;;;22.60;99.90;;;;;;5049245;28;20037;-78
2022/06/25 08:47:24;;;;;;;4.75;2.30;;;22.60;99.90;;;;;;5049833;28;20085;-77
2022/06/25 08:49:51;;;;;;;5.07;2.38;;;22.70;99.90;;;;;;5051112;28;20552;-77
2022/06/25 08:52:18;;;;;;;5.95;2.28;;;22.70;99.90;;;;;;5051194;28;20518;-77
2022/06/25 08:54:45;;;;;;;6.50;2.58;;;22.70;99.90;;;;;;5049163;28;20072;-79
2022/06/25 08:57:10;;;;;;;4.78;2.60;;;22.70;99.90;;;;;;5049564;28;20045;-76
2022/06/25 08:59:37;;;;;;;3.88;2.47;;;22.70;99.90;;;;;;5049658;28;20457;-77
2022/06/25 09:02:03;;;;;;;4.35;2.78;;;22.70;99.90;;;;;;5049751;28;20052;-78
2022/06/25 09:04:29;;;;;;;7.13;3.15;;;22.60;99.90;;;;;;5048740;28;20395;-77
2022/06/25 09:07:15;;;;;;;5.05;3.10;;;22.70;99.90;;;;;;5049717;28;20049;-77
2022/06/25 09:09:51;;;;;;;5.55;2.58;;;22.70;99.90;;;;;;5049600;28;20033;-77
2022/06/25 09:12:18;;;;;;;6.72;2.90;;;22.60;99.90;;;;;;5050864;28;20045;-77
2022/06/25 09:14:44;;;;;;;4.00;2.58;;;22.50;99.90;;;;;;5048748;28;20037;-77
2022/06/25 09:17:12;;;;;;;7.65;2.80;;;22.50;99.90;;;;;;5050841;28;20406;-77
2022/06/25 09:19:45;;;;;;;5.68;2.28;;;22.50;99.90;;;;;;5050629;28;20499;-78
2022/06/25 09:22:21;;;;;;;3.88;2.45;;;22.50;99.90;;;;;;5050033;28;20095;-78
2022/06/25 09:24:57;;;;;;;5.47;2.40;;;22.60;99.90;;;;;;5028885;28;20081;-78
2022/06/25 09:27:38;;;;;;;3.72;2.00;;;22.60;99.90;;;;;;5041925;28;20047;-77
2022/06/25 09:30:11;;;;;;;5.13;1.90;;;22.70;99.90;;;;;;5054514;28;20037;-77
2022/06/25 09:32:47;;;;;;;2.70;1.80;;;22.70;99.90;;;;;;5053616;28;20111;-77
2022/06/25 09:35:28;;;;;;;4.22;1.90;;;22.60;99.90;;;;;;5053273;28;20100;-78
2022/06/25 09:37:59;;;;;;;5.70;2.35;;;22.60;99.90;;;;;;5043362;28;20095;-77
2022/06/25 09:40:25;;;;;;;6.60;2.20;;;22.80;99.90;;;;;;5047210;28;20072;-77
2022/06/25 09:42:51;;;;;;;4.57;2.05;;;23.20;99.90;;;;;;5047757;28;20142;-78
2022/06/25 09:45:16;;;;;;;5.57;2.50;;;23.40;99.90;;;;;;5042824;28;20049;-77
2022/06/25 09:47:43;;;;;;;7.03;2.65;;;23.50;99.90;;;;;;5050365;28;20560;-77
2022/06/25 09:50:15;;;;;;;5.43;2.20;;;23.40;99.90;;;;;;5036967;28;20049;-77
2022/06/25 09:52:59;;;;;;;5.05;2.15;;;23.30;99.90;;;;;;5038038;28;20045;-78
2022/06/25 09:55:34;;;;;;;;;;;23.50;99.90;;;;;;5031799;28;20057;-77
2022/06/25 09:58:01;;;;;;;3.40;1.80;;;23.50;99.90;;;;;;5034436;28;19950;-77
2022/06/25 10:00:28;;;;;;;5.90;1.90;;;23.60;99.90;;;;;;5033057;28;20060;-77
2022/06/25 10:02:56;;;;;;;2.50;1.67;;;23.60;99.90;;;;;;5028224;28;20179;-77
2022/06/25 10:05:37;;;;;;;3.42;2.00;;;23.70;99.90;;;;;;5051663;28;20068;-78
2022/06/25 10:08:07;;;;;;;4.35;2.10;;;23.80;99.90;;;;;;5032477;28;20041;-77
2022/06/25 10:10:45;;;;;;;4.45;1.88;;;23.80;99.90;;;;;;5050795;28;20045;-77
2022/06/25 10:13:11;;;;;;;4.97;1.70;;;23.90;99.90;;;;;;5053686;28;20049;-78
2022/06/25 10:15:37;;;;;;;4.40;1.73;;;24.20;99.90;;;;;;5037303;28;20029;-77
2022/06/25 10:18:09;;;;;;;4.00;2.13;;;24.40;99.90;;;;;;5031706;28;20045;-77
2022/06/25 10:20:39;;;;;;;3.65;1.67;;;24.40;99.90;;;;;;5048021;28;20117;-77
2022/06/25 10:23:07;;;;;;;4.22;1.73;;;24.30;99.90;;;;;;5031856;28;20047;-77
2022/06/25 10:25:33;;;;;;;2.72;1.90;;;24.20;99.90;;;;;;5031032;28;20608;-77
2022/06/25 10:28:06;;;;;;;3.70;1.85;;;24.20;99.90;;;;;;5030639;28;20041;-78
2022/06/25 10:30:45;;;;;;;3.00;1.80;;;24.20;99.90;;;;;;5047262;28;20045;-78
2022/06/25 10:33:13;;;;;;;3.55;1.60;;;24.10;99.90;;;;;;5033709;28;20045;-77
2022/06/25 10:35:40;;;;;;;6.50;1.77;;;24.10;99.90;;;;;;5029580;28;20045;-77
2022/06/25 10:38:09;;;;;;;5.45;1.65;;;24.20;99.90;;;;;;5031372;28;20084;-77
2022/06/25 10:40:58;;;;;;;4.18;1.75;;;24.10;99.90;;;;;;5029693;28;20041;-78
2022/06/25 10:43:49;;;;;;;3.67;1.65;;;23.90;99.90;;;;;;5029993;28;20045;-76
2022/06/25 10:46:36;;;;;;;5.07;1.50;;;23.70;99.90;;;;;;5033063;28;20042;-77
2022/06/25 10:49:30;;;;;;;4.50;1.40;;;23.80;99.90;;;;;;5045578;28;20087;-76
2022/06/25 10:51:56;;;;;;;3.17;1.65;;;23.80;99.90;;;;;;5047345;28;20045;-76
2022/06/25 10:54:24;;;;;;;3.58;1.30;;;23.70;99.90;;;;;;5050186;28;20094;-77
2022/06/25 10:56:52;;;;;;;3.40;1.40;;;23.50;99.90;;;;;;5032655;28;20107;-76
2022/06/25 10:59:37;;;;;;;3.83;1.67;;;23.40;99.90;;;;;;5049216;28;20049;-76
2022/06/25 11:02:05;;;;;;;5.65;1.63;;;23.20;99.90;;;;;;5050902;28;20111;-77
2022/06/25 11:04:32;;;;;;;4.97;1.80;;;23.00;99.90;;;;;;5041705;28;20124;-76
2022/06/25 11:07:09;;;;;;;3.22;1.67;;;22.80;99.90;;;;;;5042669;28;20082;-77
2022/06/25 11:09:35;;;;;;;3.03;1.67;;;22.70;99.90;;;;;;5039840;28;20090;-76
2022/06/25 11:12:01;;;;;;;2.42;1.40;;;22.60;99.90;;;;;;5046043;28;20494;-77
2022/06/25 11:14:26;;;;;;;3.20;1.60;;;22.50;99.90;;;;;;5047758;28;20041;-77
2022/06/25 11:16:53;;;;;;;5.00;1.50;;;22.40;99.90;;;;;;5040657;28;20112;-76
2022/06/25 11:19:21;;;;;;;3.47;1.50;;;22.30;99.90;;;;;;5044312;28;20037;-77
2022/06/25 11:21:47;;;;;;;4.63;1.63;;;22.30;99.90;;;;;;5049270;28;20521;-78
2022/06/25 11:24:25;;;;;;;3.65;1.52;;;22.50;99.90;;;;;;5046995;28;21959;-77
2022/06/25 11:29:49;;;;;;;3.47;1.30;;;22.70;99.90;;;;;;5050918;28;20041;-78
2022/06/25 11:32:20;;;;;;;3.08;1.60;;;22.80;99.90;;;;;;5049451;28;20067;-78
2022/06/25 11:34:50;;;;;;;2.35;1.33;;;22.80;99.90;;;;;;5049462;28;20080;-77
2022/06/25 11:37:17;;;;;;;3.08;1.48;;;23.00;99.90;;;;;;5050320;28;20041;-77
2022/06/25 11:39:45;;;;;;;6.88;1.50;;;23.50;99.90;;;;;;5047674;28;20033;-78
2022/06/25 11:42:11;;;;;;;5.25;1.33;;;23.90;99.90;;;;;;5050674;28;20489;-77
2022/06/25 11:44:41;;;;;;;4.85;1.42;;;24.20;99.90;;;;;;5049889;28;20491;-78
2022/06/25 11:47:07;;;;;;;5.50;1.30;;;24.70;99.90;;;;;;5049507;28;20040;-78
2022/06/25 11:49:37;;;;;;;2.78;1.30;;;24.90;99.90;;;;;;5050086;28;20517;-78
2022/06/25 11:52:05;;;;;;;4.32;1.20;;;25.10;99.90;;;;;;5050151;28;20048;-78
2022/06/25 11:54:32;;;;;;;2.78;1.25;;;25.10;99.90;;;;;;5048978;28;20048;-78
2022/06/25 11:56:58;;;;;;;2.65;1.13;;;25.00;99.90;;;;;;5044931;28;20042;-78
2022/06/25 11:59:29;;;;;;;4.85;1.13;;;25.00;99.90;;;;;;5051197;28;20462;-78
2022/06/25 12:01:56;;;;;;;3.47;1.38;;;24.80;99.90;;;;;;5037764;28;20452;-77
2022/06/25 12:04:22;;;;;;;3.88;1.10;;;24.50;99.90;;;;;;5050669;28;20398;-77
2022/06/25 12:06:48;;;;;;;6.03;1.17;;;24.30;99.90;;;;;;5052016;28;20029;-78
2022/06/25 12:09:16;;;;;;;5.82;1.60;;;24.10;99.90;;;;;;5048315;28;20044;-77
2022/06/25 12:11:51;;;;;;;2.55;1.30;;;23.90;99.90;;;;;;5048583;28;20178;-77
2022/06/25 12:14:25;;;;;;;2.55;1.17;;;23.60;99.90;;;;;;5049818;28;20040;-76
2022/06/25 12:16:51;;;;;;;3.92;1.40;;;23.30;99.90;;;;;;5050207;28;20056;-76
2022/06/25 12:19:18;;;;;;;2.33;1.20;;;23.10;99.90;;;;;;5049555;28;20049;-77
2022/06/25 12:21:43;;;;;;;4.13;1.50;;;23.00;99.90;;;;;;5049735;28;20048;-77
2022/06/25 12:24:14;;;;;;;6.20;1.77;;;22.70;99.90;;;;;;5048996;28;20037;-77
2022/06/25 12:26:49;;;;;;;4.38;1.70;;;22.40;99.90;;;;;;5051076;28;20398;-77
2022/06/25 12:29:18;;;;;;;3.30;1.80;;;22.20;99.90;;;;;;5048927;28;20115;-77
2022/06/25 12:31:52;;;;;;;6.20;2.25;;;22.10;99.90;;;;;;5048965;28;20555;-77
2022/06/25 12:34:18;;;;;;;5.32;2.20;;;21.90;99.90;;;;;;5048380;28;20096;-77
2022/06/25 12:36:43;;;;;;;3.53;2.17;;;21.80;99.90;;;;;;5048717;28;20410;-77
2022/06/25 12:39:34;;;;;;;6.07;2.00;;;21.70;99.90;;;;;;5048773;28;20497;-77
2022/06/25 12:42:13;;;;;;;4.75;2.08;;;21.70;99.90;;;;;;5048819;28;20116;-76
2022/06/25 12:44:42;;;;;;;8.35;2.70;;;21.60;99.90;;;;;;5027311;28;20048;-77
2022/06/25 12:47:13;;;;;;;5.00;2.40;;;21.60;99.90;;;;;;5048527;28;20056;-77
2022/06/25 12:49:55;;;;;;;4.97;2.75;;;21.70;99.90;;;;;;5049740;28;20391;-77
2022/06/25 12:52:23;;;;;;;3.45;2.60;;;21.70;99.90;;;;;;5031237;28;20044;-77
2022/06/25 12:54:54;;;;;;;5.93;2.33;;;21.80;99.90;;;;;;5047309;28;20045;-77
2022/06/25 12:57:23;;;;;;;3.97;2.60;;;21.80;99.90;;;;;;5047395;28;20045;-77
2022/06/25 12:59:49;;;;;;;4.57;2.70;;;21.90;99.90;;;;;;5049791;28;20037;-78
2022/06/25 13:02:15;;;;;;;3.30;2.40;;;22.00;99.90;;;;;;5049493;28;20036;-78
2022/06/25 13:04:42;;;;;;;5.07;2.67;;;22.10;99.90;;;;;;5048121;28;20040;-78